createdAt,value
2023-01-29T00:01:49.851Z,97825.69
2023-01-29T00:04:16.685Z,97823.09
2023-01-29T00:06:43.841Z,97828.34
2023-01-29T00:09:11.645Z,97825.69
2023-01-29T00:11:38.360Z,97824.84
2023-01-29T00:14:05.414Z,97818.66
2023-01-29T00:16:32.119Z,97816.94
2023-01-29T00:18:58.851Z,97821.50
2023-01-29T00:21:25.531Z,97816.19
2023-01-29T00:23:55.096Z,97807.28
2023-01-29T00:26:21.851Z,97810.88
2023-01-29T00:28:51.592Z,97811.81
2023-01-29T00:31:21.897Z,97809.16
2023-01-29T00:33:49.364Z,97809.16
2023-01-29T00:36:18.908Z,97808.25
2023-01-29T00:38:54.413Z,97809.09
2023-01-29T00:41:41.812Z,97810.78
2023-01-29T00:44:27.153Z,97806.44
2023-01-29T00:46:54.587Z,97810.88
2023-01-29T00:49:21.425Z,97818.84
2023-01-29T00:52:06.453Z,97818.91
2023-01-29T00:54:33.317Z,97818.00
2023-01-29T00:57:00.719Z,97816.19
2023-01-29T00:59:27.442Z,97818.84
2023-01-29T01:02:12.835Z,97823.19
2023-01-29T01:04:39.569Z,97821.41
2023-01-29T01:07:06.574Z,97819.69
2023-01-29T01:09:54.857Z,97819.69
2023-01-29T01:12:21.763Z,97810.09
2023-01-29T01:14:48.520Z,97815.41
2023-01-29T01:17:15.512Z,97811.06
2023-01-29T01:19:42.309Z,97821.66
2023-01-29T01:22:09.007Z,97811.06
2023-01-29T01:24:35.820Z,97803.00
2023-01-29T01:27:02.563Z,97809.16
2023-01-29T01:29:29.351Z,97805.59
2023-01-29T01:31:56.186Z,97810.88
2023-01-29T01:34:23.808Z,97817.78
2023-01-29T01:36:50.531Z,97815.16
2023-01-29T01:39:17.285Z,97816.00
2023-01-29T01:41:44.070Z,97826.59
2023-01-29T01:44:48.267Z,97817.78
2023-01-29T01:47:15.943Z,97816.09
2023-01-29T01:49:43.649Z,97811.63
2023-01-29T01:52:11.966Z,97815.16
2023-01-29T01:54:39.144Z,97815.25
2023-01-29T01:57:16.797Z,97813.53
2023-01-29T01:59:50.033Z,97807.47
2023-01-29T02:02:36.499Z,97798.66
2023-01-29T02:05:22.022Z,97795.25
2023-01-29T02:08:08.373Z,97797.91
2023-01-29T02:10:38.362Z,97804.22
2023-01-29T02:13:06.304Z,97805.94
2023-01-29T02:15:33.500Z,97808.78
2023-01-29T02:18:02.346Z,97815.97
2023-01-29T02:20:33.379Z,97812.56
2023-01-29T02:23:27.108Z,97814.53
2023-01-29T02:26:04.513Z,97810.13
2023-01-29T02:28:39.509Z,97817.25
2023-01-29T02:31:32.785Z,97817.25
2023-01-29T02:34:25.956Z,97819.91
2023-01-29T02:37:06.079Z,97814.78
2023-01-29T02:39:53.128Z,97814.88
2023-01-29T02:42:27.316Z,97810.69
2023-01-29T02:45:24.895Z,97808.19
2023-01-29T02:48:00.796Z,97804.88
2023-01-29T02:50:49.154Z,97804.09
2023-01-29T02:53:18.396Z,97804.97
2023-01-29T02:55:52.979Z,97797.97
2023-01-29T02:58:29.852Z,97802.41
2023-01-29T03:01:00.778Z,97799.94
2023-01-29T03:03:32.737Z,97807.03
2023-01-29T03:05:59.709Z,97811.63
2023-01-29T03:08:37.338Z,97812.59
2023-01-29T03:11:06.392Z,97816.94
2023-01-29T03:13:40.813Z,97809.84
2023-01-29T03:16:14.362Z,97809.94
2023-01-29T03:18:50.950Z,97804.81
2023-01-29T03:21:40.801Z,97816.53
2023-01-29T03:24:29.980Z,97805.22
2023-01-29T03:27:19.743Z,97807.97
2023-01-29T03:30:06.442Z,97802.69
2023-01-29T03:32:56.399Z,97812.44
2023-01-29T03:35:39.394Z,97801.84
2023-01-29T03:38:11.595Z,97806.97
2023-01-29T03:41:19.430Z,97807.72
2023-01-29T03:44:10.558Z,97803.19
2023-01-29T03:46:54.420Z,97791.66
2023-01-29T03:49:59.062Z,97802.25
2023-01-29T03:52:40.390Z,97808.41
2023-01-29T03:55:11.409Z,97813.59
2023-01-29T03:57:47.389Z,97802.94
2023-01-29T04:00:23.651Z,97788.75
2023-01-29T04:03:19.555Z,97802.75
2023-01-29T04:05:58.445Z,97800.97
2023-01-29T04:08:32.585Z,97802.75
2023-01-29T04:11:04.595Z,97800.97
2023-01-29T04:13:33.731Z,97800.97
2023-01-29T04:16:02.089Z,97801.03
2023-01-29T04:18:49.705Z,97794.88
2023-01-29T04:21:22.682Z,97795.75
2023-01-29T04:23:49.430Z,97796.69
2023-01-29T04:26:27.216Z,97811.63
2023-01-29T04:29:09.744Z,97803.69
2023-01-29T04:32:02.291Z,97805.50
2023-01-29T04:34:36.209Z,97810.78
2023-01-29T04:37:41.789Z,97802.94
2023-01-29T04:40:23.483Z,97815.41
2023-01-29T04:42:56.209Z,97807.56
2023-01-29T04:46:00.183Z,97806.69
2023-01-29T04:48:30.546Z,97805.16
2023-01-29T04:51:35.709Z,97807.88
2023-01-29T04:54:10.869Z,97807.03
2023-01-29T04:56:55.207Z,97802.59
2023-01-29T04:59:28.839Z,97803.38
2023-01-29T05:01:55.645Z,97799.66
2023-01-29T05:04:23.235Z,97789.00
2023-01-29T05:06:50.318Z,97789.84
2023-01-29T05:09:17.522Z,97794.19
2023-01-29T05:11:45.530Z,97794.31
2023-01-29T05:14:14.501Z,97798.81
2023-01-29T05:16:47.723Z,97799.66
2023-01-29T05:19:16.030Z,97797.03
2023-01-29T05:21:45.526Z,97795.25
2023-01-29T05:24:14.531Z,97806.69
2023-01-29T05:27:01.679Z,97821.81
2023-01-29T05:29:28.364Z,97815.94
2023-01-29T05:31:55.192Z,97820.53
2023-01-29T05:34:21.977Z,97819.94
2023-01-29T05:36:48.682Z,97811.31
2023-01-29T05:39:15.442Z,97809.78
2023-01-29T05:41:42.476Z,97808.13
2023-01-29T05:44:12.174Z,97797.63
2023-01-29T05:46:39.081Z,97788.84
2023-01-29T05:49:06.206Z,97773.81
2023-01-29T05:51:32.890Z,97760.56
2023-01-29T05:53:59.596Z,97760.47
2023-01-29T05:56:26.346Z,97755.94
2023-01-29T05:58:53.034Z,97774.38
2023-01-29T06:01:24.893Z,97786.72
2023-01-29T06:03:51.856Z,97786.63
2023-01-29T06:06:18.538Z,97782.28
2023-01-29T06:08:45.258Z,97779.53
2023-01-29T06:11:13.211Z,97783.13
2023-01-29T06:13:40.445Z,97783.88
2023-01-29T06:16:08.393Z,97784.72
2023-01-29T06:18:36.242Z,97784.66
2023-01-29T06:21:04.201Z,97789.97
2023-01-29T06:23:30.936Z,97792.78
2023-01-29T06:26:01.836Z,97794.72
2023-01-29T06:28:28.553Z,97791.41
2023-01-29T06:31:01.299Z,97792.50
2023-01-29T06:33:32.280Z,97800.66
2023-01-29T06:36:00.677Z,97803.44
2023-01-29T06:38:28.143Z,97797.22
2023-01-29T06:40:55.465Z,97800.72
2023-01-29T06:43:23.330Z,97789.09
2023-01-29T06:45:54.566Z,97788.94
2023-01-29T06:48:22.220Z,97789.59
2023-01-29T06:50:53.812Z,97785.09
2023-01-29T06:53:20.959Z,97793.72
2023-01-29T06:55:53.853Z,97797.97
2023-01-29T06:58:20.758Z,97798.84
2023-01-29T07:00:47.568Z,97804.22
2023-01-29T07:03:14.384Z,97802.69
2023-01-29T07:05:41.077Z,97805.44
2023-01-29T07:08:09.417Z,97802.00
2023-01-29T07:10:36.477Z,97801.25
2023-01-29T07:13:03.203Z,97785.34
2023-01-29T07:15:29.913Z,97795.84
2023-01-29T07:18:00.518Z,97793.97
2023-01-29T07:20:28.599Z,97797.38
2023-01-29T07:22:56.675Z,97796.38
2023-01-29T07:25:23.939Z,97802.34
2023-01-29T07:27:50.677Z,97804.91
2023-01-29T07:30:17.931Z,97817.13
2023-01-29T07:32:44.912Z,97823.19
2023-01-29T07:35:11.610Z,97822.25
2023-01-29T07:37:38.343Z,97825.69
2023-01-29T07:40:10.367Z,97824.63
2023-01-29T07:42:39.248Z,97828.06
2023-01-29T07:45:06.950Z,97829.69
2023-01-29T07:47:33.673Z,97826.97
2023-01-29T07:50:00.414Z,97825.16
2023-01-29T07:52:29.574Z,97831.31
2023-01-29T07:54:56.297Z,97832.94
2023-01-29T07:57:23.302Z,97839.84
2023-01-29T07:59:50.014Z,97839.78
2023-01-29T08:02:16.897Z,97845.09
2023-01-29T08:04:43.663Z,97845.16
2023-01-29T08:07:10.396Z,97837.13
2023-01-29T08:09:37.132Z,97837.03
2023-01-29T08:12:04.293Z,97840.53
2023-01-29T08:14:31.061Z,97853.72
2023-01-29T08:16:57.817Z,97858.06
2023-01-29T08:19:24.573Z,97860.81
2023-01-29T08:21:51.295Z,97864.38
2023-01-29T08:24:18.119Z,97850.53
2023-01-29T08:26:44.873Z,97854.22
2023-01-29T08:29:12.209Z,97856.00
2023-01-29T08:31:38.963Z,97855.94
2023-01-29T08:34:05.692Z,97858.50
2023-01-29T08:36:32.401Z,97860.97
2023-01-29T08:38:59.151Z,97868.00
2023-01-29T08:41:25.888Z,97867.88
2023-01-29T08:43:52.621Z,97867.72
2023-01-29T08:46:19.875Z,97869.38
2023-01-29T08:48:46.727Z,97862.94
2023-01-29T08:51:13.682Z,97854.78
2023-01-29T08:53:40.418Z,97855.59
2023-01-29T08:56:07.310Z,97857.97
2023-01-29T08:58:34.085Z,97859.66
2023-01-29T09:01:11.512Z,97856.75
2023-01-29T09:03:40.947Z,97857.44
2023-01-29T09:06:10.005Z,97862.56
2023-01-29T09:08:36.722Z,97854.44
2023-01-29T09:11:03.688Z,97871.03
2023-01-29T09:13:30.633Z,97866.50
2023-01-29T09:16:01.523Z,97873.31
2023-01-29T09:18:29.138Z,97875.13
2023-01-29T09:20:56.515Z,97873.44
2023-01-29T09:23:23.251Z,97875.28
2023-01-29T09:25:50.028Z,97870.00
2023-01-29T09:28:19.341Z,97870.78
2023-01-29T09:30:46.673Z,97877.69
2023-01-29T09:33:13.418Z,97875.97
2023-01-29T09:35:41.414Z,97882.25
2023-01-29T09:38:11.651Z,97875.13
2023-01-29T09:40:48.644Z,97874.00
2023-01-29T09:43:24.491Z,97860.38
2023-01-29T09:46:15.019Z,97854.72
2023-01-29T09:48:42.164Z,97851.69
2023-01-29T09:51:19.831Z,97838.25
2023-01-29T09:53:51.794Z,97827.53
2023-01-29T09:56:20.511Z,97825.66
2023-01-29T09:58:47.756Z,97825.53
2023-01-29T10:01:38.460Z,97815.47
2023-01-29T10:04:23.481Z,97802.88
2023-01-29T10:07:22.561Z,97804.41
2023-01-29T10:09:58.824Z,97800.63
2023-01-29T10:12:38.609Z,97799.19
2023-01-29T10:15:14.795Z,97796.16
2023-01-29T10:17:57.473Z,97804.44
2023-01-29T10:20:43.280Z,97805.47
2023-01-29T10:23:27.112Z,97810.75
2023-01-29T10:25:54.205Z,97800.41
2023-01-29T10:28:29.284Z,97806.94
2023-01-29T10:31:24.937Z,97808.06
2023-01-29T10:34:01.915Z,97813.94
2023-01-29T10:36:46.697Z,97810.31
2023-01-29T10:39:20.523Z,97821.06
2023-01-29T10:41:58.620Z,97814.13
2023-01-29T10:44:44.263Z,97813.28
2023-01-29T10:47:52.853Z,97807.00
2023-01-29T10:50:51.732Z,97807.13
2023-01-29T10:53:21.338Z,97819.56
2023-01-29T10:56:20.901Z,97824.75
2023-01-29T10:58:52.087Z,97822.03
2023-01-29T11:01:18.807Z,97829.03
2023-01-29T11:03:45.534Z,97824.38
2023-01-29T11:06:19.631Z,97815.34
2023-01-29T11:08:54.143Z,97815.25
2023-01-29T11:11:22.641Z,97810.59
2023-01-29T11:14:05.080Z,97812.19
2023-01-29T11:16:33.357Z,97814.97
2023-01-29T11:19:01.137Z,97808.88
2023-01-29T11:21:28.994Z,97807.38
2023-01-29T11:24:06.511Z,97793.44
2023-01-29T11:26:37.240Z,97790.00
2023-01-29T11:29:03.956Z,97785.84
2023-01-29T11:31:37.944Z,97773.72
2023-01-29T11:34:19.375Z,97769.66
2023-01-29T11:36:46.753Z,97770.88
2023-01-29T11:39:21.745Z,97780.00
2023-01-29T11:41:59.195Z,97773.94
2023-01-29T11:44:34.502Z,97772.31
2023-01-29T11:47:16.493Z,97780.50
2023-01-29T11:49:48.961Z,97773.69
2023-01-29T11:52:17.552Z,97763.06
2023-01-29T11:54:52.019Z,97761.25
2023-01-29T11:57:30.617Z,97761.97
2023-01-29T12:00:18.108Z,97755.63
2023-01-29T12:02:53.180Z,97753.72
2023-01-29T12:05:23.157Z,97751.91
2023-01-29T12:07:53.156Z,97747.38
2023-01-29T12:10:36.131Z,97739.22
2023-01-29T12:13:05.744Z,97729.25
2023-01-29T12:15:32.461Z,97729.00
2023-01-29T12:18:26.002Z,97718.19
2023-01-29T12:20:59.988Z,97707.69
2023-01-29T12:23:39.231Z,97707.75
2023-01-29T12:26:13.606Z,97689.38
2023-01-29T12:29:08.143Z,97676.81
2023-01-29T12:31:42.275Z,97686.78
2023-01-29T12:34:34.176Z,97681.06
2023-01-29T12:37:22.895Z,97678.56
2023-01-29T12:39:51.661Z,97677.19
2023-01-29T12:42:22.966Z,97679.53
2023-01-29T12:44:56.708Z,97667.75
2023-01-29T12:47:33.658Z,97671.25
2023-01-29T12:50:05.215Z,97658.03
2023-01-29T12:52:39.193Z,97661.66
2023-01-29T12:55:21.163Z,97655.59
2023-01-29T12:57:58.926Z,97650.47
2023-01-29T13:00:28.318Z,97641.34
2023-01-29T13:03:08.383Z,97641.34
2023-01-29T13:05:47.563Z,97634.66
2023-01-29T13:08:25.706Z,97632.00
2023-01-29T13:10:53.968Z,97632.31
2023-01-29T13:13:42.862Z,97633.50
2023-01-29T13:16:12.847Z,97636.56
2023-01-29T13:18:57.669Z,97628.16
2023-01-29T13:21:31.862Z,97619.66
2023-01-29T13:24:02.772Z,97611.97
2023-01-29T13:26:30.744Z,97620.28
2023-01-29T13:28:57.974Z,97618.78
2023-01-29T13:31:31.365Z,97620.06
2023-01-29T13:34:22.161Z,97627.50
2023-01-29T13:36:54.803Z,97636.53
2023-01-29T13:39:28.925Z,97646.44
2023-01-29T13:41:57.381Z,97642.38
2023-01-29T13:44:26.979Z,97642.81
2023-01-29T13:46:59.634Z,97643.13
2023-01-29T13:49:47.247Z,97633.63
2023-01-29T13:52:33.917Z,97640.97
2023-01-29T13:55:05.683Z,97641.34
2023-01-29T13:57:43.440Z,97648.69
2023-01-29T14:00:33.452Z,97638.28
2023-01-29T14:03:00.096Z,97639.00
2023-01-29T14:05:29.521Z,97643.09
2023-01-29T14:08:06.926Z,97641.28
2023-01-29T14:10:35.115Z,97642.97
2023-01-29T14:13:04.718Z,97640.31
2023-01-29T14:15:33.696Z,97633.84
2023-01-29T14:18:14.280Z,97636.19
2023-01-29T14:20:51.368Z,97634.91
2023-01-29T14:23:35.913Z,97623.03
2023-01-29T14:26:05.026Z,97618.56
2023-01-29T14:28:33.656Z,97613.88
2023-01-29T14:31:00.603Z,97615.47
2023-01-29T14:33:28.443Z,97617.94
2023-01-29T14:35:57.060Z,97618.69
2023-01-29T14:38:26.498Z,97619.53
2023-01-29T14:41:03.691Z,97614.94
2023-01-29T14:43:30.422Z,97611.44
2023-01-29T14:46:32.218Z,97614.94
2023-01-29T14:48:59.034Z,97621.13
2023-01-29T14:51:26.987Z,97628.88
2023-01-29T14:54:03.938Z,97624.41
2023-01-29T14:56:40.910Z,97622.72
2023-01-29T14:59:30.554Z,97622.84
2023-01-29T15:02:00.715Z,97621.13
2023-01-29T15:04:38.000Z,97620.19
2023-01-29T15:07:11.767Z,97613.97
2023-01-29T15:09:44.425Z,97608.78
2023-01-29T15:12:42.218Z,97613.25
2023-01-29T15:15:27.355Z,97616.13
2023-01-29T15:18:16.219Z,97616.53
2023-01-29T15:20:43.541Z,97623.88
2023-01-29T15:23:29.167Z,97621.41
2023-01-29T15:26:04.361Z,97626.84
2023-01-29T15:28:32.511Z,97632.38
2023-01-29T15:31:01.956Z,97627.25
2023-01-29T15:33:28.881Z,97618.72
2023-01-29T15:36:08.592Z,97612.88
2023-01-29T15:38:35.623Z,97621.16
2023-01-29T15:41:14.432Z,97620.63
2023-01-29T15:43:46.712Z,97623.69
2023-01-29T15:46:28.303Z,97625.03
2023-01-29T15:48:56.281Z,97615.56
2023-01-29T15:51:25.430Z,97614.16
2023-01-29T15:53:55.142Z,97609.25
2023-01-29T15:56:29.414Z,97610.44
2023-01-29T15:58:58.066Z,97608.16
2023-01-29T16:01:28.909Z,97600.38
2023-01-29T16:03:59.371Z,97605.91
2023-01-29T16:06:26.765Z,97608.84
2023-01-29T16:08:54.392Z,97606.19
2023-01-29T16:11:21.718Z,97601.94
2023-01-29T16:13:50.095Z,97605.56
2023-01-29T16:16:21.068Z,97600.44
2023-01-29T16:18:59.576Z,97604.97
2023-01-29T16:21:38.243Z,97609.56
2023-01-29T16:24:09.699Z,97611.44
2023-01-29T16:26:38.509Z,97607.94
2023-01-29T16:29:11.437Z,97618.66
2023-01-29T16:31:38.810Z,97616.00
2023-01-29T16:34:07.542Z,97604.63
2023-01-29T16:36:34.235Z,97612.03
2023-01-29T16:39:05.168Z,97613.19
2023-01-29T16:41:36.140Z,97609.13
2023-01-29T16:44:13.289Z,97608.66
2023-01-29T16:46:47.705Z,97607.28
2023-01-29T16:49:26.779Z,97604.31
2023-01-29T16:51:54.460Z,97602.97
2023-01-29T16:54:24.370Z,97607.78
2023-01-29T16:56:56.046Z,97613.50
2023-01-29T16:59:32.391Z,97607.59
2023-01-29T17:01:59.348Z,97619.25
2023-01-29T17:04:26.138Z,97630.06
2023-01-29T17:06:58.898Z,97630.22
2023-01-29T17:09:31.268Z,97626.06
2023-01-29T17:12:06.689Z,97628.91
2023-01-29T17:14:34.445Z,97629.94
2023-01-29T17:17:15.330Z,97629.28
2023-01-29T17:19:42.019Z,97625.88
2023-01-29T17:22:14.556Z,97629.38
2023-01-29T17:24:41.971Z,97619.72
2023-01-29T17:27:18.781Z,97615.34
2023-01-29T17:29:45.673Z,97612.03
2023-01-29T17:32:12.616Z,97613.06
2023-01-29T17:34:39.368Z,97601.69
2023-01-29T17:37:06.060Z,97607.09
2023-01-29T17:39:32.817Z,97609.94
2023-01-29T17:42:01.213Z,97612.78
2023-01-29T17:44:27.955Z,97603.22
2023-01-29T17:46:54.681Z,97615.69
2023-01-29T17:49:29.196Z,97602.66
2023-01-29T17:51:56.779Z,97606.41
2023-01-29T17:54:25.465Z,97607.53
2023-01-29T17:56:52.879Z,97604.22
2023-01-29T17:59:22.319Z,97603.56
2023-01-29T18:01:50.091Z,97599.38
2023-01-29T18:04:17.385Z,97589.06
2023-01-29T18:06:46.374Z,97594.53
2023-01-29T18:09:18.685Z,97586.84
2023-01-29T18:11:45.401Z,97591.56
2023-01-29T18:14:14.279Z,97590.91
2023-01-29T18:16:42.696Z,97592.00
2023-01-29T18:19:19.918Z,97593.13
2023-01-29T18:21:47.084Z,97597.75
2023-01-29T18:24:13.838Z,97591.88
2023-01-29T18:26:40.645Z,97589.41
2023-01-29T18:29:07.701Z,97594.84
2023-01-29T18:31:34.475Z,97596.06
2023-01-29T18:34:01.225Z,97600.69
2023-01-29T18:36:28.140Z,97605.50
2023-01-29T18:38:55.743Z,97598.84
2023-01-29T18:41:22.724Z,97591.22
2023-01-29T18:43:51.526Z,97592.44
2023-01-29T18:46:18.989Z,97599.69
2023-01-29T18:48:45.757Z,97593.69
2023-01-29T18:51:12.481Z,97600.03
2023-01-29T18:53:39.375Z,97595.84
2023-01-29T18:56:06.652Z,97597.81
2023-01-29T18:58:35.998Z,97587.41
2023-01-29T19:01:09.960Z,97603.44
2023-01-29T19:03:40.622Z,97599.25
2023-01-29T19:06:09.027Z,97610.00
2023-01-29T19:08:35.953Z,97607.53
2023-01-29T19:11:07.933Z,97615.56
2023-01-29T19:13:36.063Z,97609.47
2023-01-29T19:16:06.682Z,97607.09
2023-01-29T19:18:33.484Z,97609.19
2023-01-29T19:21:00.487Z,97613.03
2023-01-29T19:23:27.467Z,97624.00
2023-01-29T19:25:57.081Z,97616.47
2023-01-29T19:28:23.840Z,97621.94
2023-01-29T19:30:50.538Z,97618.69
2023-01-29T19:33:17.304Z,97619.88
2023-01-29T19:35:45.195Z,97621.03
2023-01-29T19:38:11.996Z,97612.47
2023-01-29T19:40:38.793Z,97612.72
2023-01-29T19:43:05.768Z,97619.09
2023-01-29T19:45:49.798Z,97617.50
2023-01-29T19:48:21.182Z,97609.72
2023-01-29T19:50:55.965Z,97616.84
2023-01-29T19:53:23.244Z,97619.56
2023-01-29T19:56:01.958Z,97617.09
2023-01-29T19:58:29.049Z,97610.97
2023-01-29T20:01:00.414Z,97611.03
2023-01-29T20:03:28.113Z,97612.03
2023-01-29T20:05:56.217Z,97611.28
2023-01-29T20:08:23.852Z,97609.63
2023-01-29T20:10:50.957Z,97610.66
2023-01-29T20:13:17.914Z,97611.66
2023-01-29T20:15:46.065Z,97602.94
2023-01-29T20:18:13.534Z,97602.28
2023-01-29T20:20:41.853Z,97611.19
2023-01-29T20:23:09.613Z,97614.06
2023-01-29T20:25:37.319Z,97608.94
2023-01-29T20:28:05.807Z,97603.75
2023-01-29T20:30:33.681Z,97599.47
2023-01-29T20:33:01.177Z,97598.63
2023-01-29T20:35:29.448Z,97594.31
2023-01-29T20:37:56.328Z,97589.22
2023-01-29T20:40:23.174Z,97588.53
2023-01-29T20:42:49.906Z,97590.38
2023-01-29T20:45:16.593Z,97580.84
2023-01-29T20:47:43.345Z,97584.56
2023-01-29T20:50:11.543Z,97575.09
2023-01-29T20:52:39.850Z,97576.94
2023-01-29T20:55:08.481Z,97568.25
2023-01-29T20:57:36.394Z,97563.81
2023-01-29T21:00:04.930Z,97558.59
2023-01-29T21:02:31.751Z,97556.91
2023-01-29T21:04:58.464Z,97558.69
2023-01-29T21:07:25.182Z,97557.00
2023-01-29T21:09:51.920Z,97557.00
2023-01-29T21:12:18.674Z,97557.84
2023-01-29T21:14:45.963Z,97558.69
2023-01-29T21:17:12.713Z,97562.19
2023-01-29T21:19:39.410Z,97556.06
2023-01-29T21:22:06.208Z,97556.91
2023-01-29T21:24:33.041Z,97560.47
2023-01-29T21:26:59.774Z,97567.53
2023-01-29T21:29:26.575Z,97569.38
2023-01-29T21:31:53.314Z,97564.44
2023-01-29T21:34:20.099Z,97577.00
2023-01-29T21:36:46.835Z,97568.50
2023-01-29T21:39:16.593Z,97568.81
2023-01-29T21:42:03.008Z,97564.47
2023-01-29T21:44:29.830Z,97564.63
2023-01-29T21:46:56.557Z,97569.97
2023-01-29T21:49:23.430Z,97563.75
2023-01-29T21:51:51.322Z,97568.13
2023-01-29T21:54:18.059Z,97568.97
2023-01-29T21:56:44.737Z,97561.81
2023-01-29T21:59:11.485Z,97561.81
2023-01-29T22:01:38.876Z,97559.97
2023-01-29T22:04:08.688Z,97550.38
2023-01-29T22:06:35.430Z,97556.50
2023-01-29T22:09:02.267Z,97558.28
2023-01-29T22:11:29.052Z,97556.53
2023-01-29T22:13:55.809Z,97564.47
2023-01-29T22:16:23.822Z,97559.19
2023-01-29T22:18:50.594Z,97554.75
2023-01-29T22:21:17.320Z,97555.69
2023-01-29T22:23:48.437Z,97551.28
2023-01-29T22:26:15.668Z,97548.72
2023-01-29T22:28:42.571Z,97551.34
2023-01-29T22:31:09.700Z,97547.88
2023-01-29T22:33:36.764Z,97550.50
2023-01-29T22:36:03.691Z,97542.66
2023-01-29T22:38:30.779Z,97540.09
2023-01-29T22:41:02.490Z,97527.00
2023-01-29T22:43:29.507Z,97521.88
2023-01-29T22:45:56.420Z,97514.09
2023-01-29T22:48:23.593Z,97506.28
2023-01-29T22:51:09.857Z,97500.28
2023-01-29T22:53:38.191Z,97490.69
2023-01-29T22:56:06.258Z,97485.56
2023-01-29T22:58:33.263Z,97464.69
2023-01-29T23:00:59.989Z,97472.75
2023-01-29T23:03:26.755Z,97464.13
2023-01-29T23:05:53.489Z,97453.75
2023-01-29T23:08:20.223Z,97458.16
2023-01-29T23:10:46.973Z,97461.72
2023-01-29T23:13:13.672Z,97453.81
2023-01-29T23:15:40.505Z,97455.69
2023-01-29T23:18:07.458Z,97451.41
2023-01-29T23:20:34.471Z,97457.63
2023-01-29T23:23:03.784Z,97449.84
2023-01-29T23:25:48.820Z,97435.75
2023-01-29T23:28:15.502Z,97450.69
2023-01-29T23:30:42.263Z,97450.69
2023-01-29T23:33:12.067Z,97453.28
2023-01-29T23:35:39.119Z,97451.41
2023-01-29T23:38:05.838Z,97453.06
2023-01-29T23:40:32.618Z,97451.25
2023-01-29T23:42:59.311Z,97438.94
2023-01-29T23:45:26.650Z,97431.03
2023-01-29T23:47:53.365Z,97435.53
2023-01-29T23:50:20.298Z,97442.78
2023-01-29T23:52:47.134Z,97436.81
2023-01-29T23:55:13.829Z,97431.78
2023-01-29T23:57:40.573Z,97421.31
